sensor_id;sensor_type;location;lat;lon;timestamp;temperature;humidity
16643;DHT22;8435;52.184;5.406;2023-09-30T00:00:14;15.80;99.90
16643;DHT22;8435;52.184;5.406;2023-09-30T00:02:42;15.80;99.90
16643;DHT22;8435;52.184;5.406;2023-09-30T00:05:10;15.80;99.90
16643;DHT22;8435;52.184;5.406;2023-09-30T00:07:36;15.80;99.90
16643;DHT22;8435;52.184;5.406;2023-09-30T00:10:04;15.80;99.90
16643;DHT22;8435;52.184;5.406;2023-09-30T00:12:31;15.80;99.90
16643;DHT22;8435;52.184;5.406;2023-09-30T00:14:58;15.80;99.90
16643;DHT22;8435;52.184;5.406;2023-09-30T00:17:24;15.80;99.90
16643;DHT22;8435;52.184;5.406;2023-09-30T00:19:53;15.80;99.90
16643;DHT22;8435;52.184;5.406;2023-09-30T00:22:19;15.80;99.90
16643;DHT22;8435;52.184;5.406;2023-09-30T00:24:46;15.90;99.90
16643;DHT22;8435;52.184;5.406;2023-09-30T00:27:13;15.90;99.90
16643;DHT22;8435;52.184;5.406;2023-09-30T00:29:40;15.90;99.90
16643;DHT22;8435;52.184;5.406;2023-09-30T00:32:07;15.90;99.90
16643;DHT22;8435;52.184;5.406;2023-09-30T00:34:34;15.80;99.90
16643;DHT22;8435;52.184;5.406;2023-09-30T00:37:02;15.90;99.90
16643;DHT22;8435;52.184;5.406;2023-09-30T00:39:29;15.80;99.90
16643;DHT22;8435;52.184;5.406;2023-09-30T00:41:56;15.90;99.90
16643;DHT22;8435;52.184;5.406;2023-09-30T00:44:26;15.90;99.90
16643;DHT22;8435;52.184;5.406;2023-09-30T00:46:54;15.90;99.90
16643;DHT22;8435;52.184;5.406;2023-09-30T00:49:22;15.90;99.90
16643;DHT22;8435;52.184;5.406;2023-09-30T00:51:49;15.90;99.90
16643;DHT22;8435;52.184;5.406;2023-09-30T00:54:18;15.90;99.90
16643;DHT22;8435;52.184;5.406;2023-09-30T00:56:47;15.80;99.90
16643;DHT22;8435;52.184;5.406;2023-09-30T00:59:15;15.80;99.90
16643;DHT22;8435;52.184;5.406;2023-09-30T01:01:42;15.80;99.90
16643;DHT22;8435;52.184;5.406;2023-09-30T01:04:09;15.80;99.90
16643;DHT22;8435;52.184;5.406;2023-09-30T01:06:36;15.80;99.90
16643;DHT22;8435;52.184;5.406;2023-09-30T01:09:03;15.80;99.90
16643;DHT22;8435;52.184;5.406;2023-09-30T01:11:31;15.80;99.90
16643;DHT22;8435;52.184;5.406;2023-09-30T01:13:58;15.80;99.90
16643;DHT22;8435;52.184;5.406;2023-09-30T01:16:28;15.80;99.90
16643;DHT22;8435;52.184;5.406;2023-09-30T01:18:55;15.70;99.90
16643;DHT22;8435;52.184;5.406;2023-09-30T01:21:23;15.80;99.90
16643;DHT22;8435;52.184;5.406;2023-09-30T01:23:54;15.70;99.90
16643;DHT22;8435;52.184;5.406;2023-09-30T01:26:24;15.70;99.90
16643;DHT22;8435;52.184;5.406;2023-09-30T01:28:50;15.70;99.90
16643;DHT22;8435;52.184;5.406;2023-09-30T01:31:17;15.70;99.90
16643;DHT22;8435;52.184;5.406;2023-09-30T01:33:44;15.60;99.90
16643;DHT22;8435;52.184;5.406;2023-09-30T01:36:11;15.60;99.90
16643;DHT22;8435;52.184;5.406;2023-09-30T01:38:37;15.60;99.90
16643;DHT22;8435;52.184;5.406;2023-09-30T01:41:06;15.60;99.90
16643;DHT22;8435;52.184;5.406;2023-09-30T01:43:32;15.60;99.90
16643;DHT22;8435;52.184;5.406;2023-09-30T01:46:01;15.50;99.90
16643;DHT22;8435;52.184;5.406;2023-09-30T01:48:28;15.50;99.90
16643;DHT22;8435;52.184;5.406;2023-09-30T01:50:54;15.50;99.90
16643;DHT22;8435;52.184;5.406;2023-09-30T01:53:21;15.40;99.90
16643;DHT22;8435;52.184;5.406;2023-09-30T01:55:48;15.40;99.90
16643;DHT22;8435;52.184;5.406;2023-09-30T01:58:16;15.40;99.90
16643;DHT22;8435;52.184;5.406;2023-09-30T02:00:43;15.40;99.90
16643;DHT22;8435;52.184;5.406;2023-09-30T02:03:11;15.40;99.90
16643;DHT22;8435;52.184;5.406;2023-09-30T02:05:38;15.30;99.90
16643;DHT22;8435;52.184;5.406;2023-09-30T02:08:05;15.30;99.90
16643;DHT22;8435;52.184;5.406;2023-09-30T02:10:32;15.30;99.90
16643;DHT22;8435;52.184;5.406;2023-09-30T02:12:59;15.30;99.90
16643;DHT22;8435;52.184;5.406;2023-09-30T02:15:29;15.30;99.90
16643;DHT22;8435;52.184;5.406;2023-09-30T02:17:56;15.20;99.90
16643;DHT22;8435;52.184;5.406;2023-09-30T02:20:23;15.20;99.90
16643;DHT22;8435;52.184;5.406;2023-09-30T02:22:51;15.10;99.90
16643;DHT22;8435;52.184;5.406;2023-09-30T02:25:18;15.20;99.90
16643;DHT22;8435;52.184;5.406;2023-09-30T02:27:45;15.20;99.90
16643;DHT22;8435;52.184;5.406;2023-09-30T02:30:12;15.10;99.90
16643;DHT22;8435;52.184;5.406;2023-09-30T02:32:41;15.10;99.90
16643;DHT22;8435;52.184;5.406;2023-09-30T02:35:08;15.10;99.90
16643;DHT22;8435;52.184;5.406;2023-09-30T02:37:36;15.10;99.90
16643;DHT22;8435;52.184;5.406;2023-09-30T02:40:04;15.10;99.90
16643;DHT22;8435;52.184;5.406;2023-09-30T02:42:34;15.10;99.90
16643;DHT22;8435;52.184;5.406;2023-09-30T02:45:02;15.10;99.90
16643;DHT22;8435;52.184;5.406;2023-09-30T02:47:29;15.10;99.90
16643;DHT22;8435;52.184;5.406;2023-09-30T02:49:59;15.20;99.90
16643;DHT22;8435;52.184;5.406;2023-09-30T02:52:26;15.20;99.90
16643;DHT22;8435;52.184;5.406;2023-09-30T02:54:54;15.20;99.90
16643;DHT22;8435;52.184;5.406;2023-09-30T02:57:22;15.30;99.90
16643;DHT22;8435;52.184;5.406;2023-09-30T02:59:49;15.30;99.90
16643;DHT22;8435;52.184;5.406;2023-09-30T03:02:19;15.30;99.90
16643;DHT22;8435;52.184;5.406;2023-09-30T03:04:48;15.30;99.90
16643;DHT22;8435;52.184;5.406;2023-09-30T03:07:18;15.30;99.90
16643;DHT22;8435;52.184;5.406;2023-09-30T03:09:45;15.40;99.90
16643;DHT22;8435;52.184;5.406;2023-09-30T03:12:12;15.40;99.90
16643;DHT22;8435;52.184;5.406;2023-09-30T03:14:39;15.40;99.90
16643;DHT22;8435;52.184;5.406;2023-09-30T03:17:06;15.40;99.90
16643;DHT22;8435;52.184;5.406;2023-09-30T03:19:37;15.50;99.90
16643;DHT22;8435;52.184;5.406;2023-09-30T03:22:03;15.50;99.90
16643;DHT22;8435;52.184;5.406;2023-09-30T03:24:32;15.50;99.90
16643;DHT22;8435;52.184;5.406;2023-09-30T03:27:00;15.60;99.90
16643;DHT22;8435;52.184;5.406;2023-09-30T03:29:27;15.60;99.90
16643;DHT22;8435;52.184;5.406;2023-09-30T03:31:54;15.60;99.90
16643;DHT22;8435;52.184;5.406;2023-09-30T03:34:22;15.60;99.90
16643;DHT22;8435;52.184;5.406;2023-09-30T03:36:48;15.70;99.90
16643;DHT22;8435;52.184;5.406;2023-09-30T03:39:15;15.70;99.90
16643;DHT22;8435;52.184;5.406;2023-09-30T03:41:53;15.70;99.90
16643;DHT22;8435;52.184;5.406;2023-09-30T03:44:19;15.70;99.90
16643;DHT22;8435;52.184;5.406;2023-09-30T03:46:48;15.70;99.90
16643;DHT22;8435;52.184;5.406;2023-09-30T03:49:15;15.70;99.90
16643;DHT22;8435;52.184;5.406;2023-09-30T03:51:42;15.70;99.90
16643;DHT22;8435;52.184;5.406;2023-09-30T03:54:09;15.70;99.90
16643;DHT22;8435;52.184;5.406;2023-09-30T03:56:37;15.80;99.90
16643;DHT22;8435;52.184;5.406;2023-09-30T03:59:05;15.80;99.90
16643;DHT22;8435;52.184;5.406;2023-09-30T04:01:32;15.70;99.90
16643;DHT22;8435;52.184;5.406;2023-09-30T04:03:59;15.80;99.90
16643;DHT22;8435;52.184;5.406;2023-09-30T04:06:26;15.70;99.90
16643;DHT22;8435;52.184;5.406;2023-09-30T04:08:54;15.80;99.90
16643;DHT22;8435;52.184;5.406;2023-09-30T04:11:23;15.80;99.90
16643;DHT22;8435;52.184;5.406;2023-09-30T04:13:50;15.80;99.90
16643;DHT22;8435;52.184;5.406;2023-09-30T04:16:18;15.80;99.90
16643;DHT22;8435;52.184;5.406;2023-09-30T04:18:46;15.70;99.90
16643;DHT22;8435;52.184;5.406;2023-09-30T04:21:15;15.80;99.90
16643;DHT22;8435;52.184;5.406;2023-09-30T04:23:42;15.80;99.90
16643;DHT22;8435;52.184;5.406;2023-09-30T04:26:09;15.80;99.90
16643;DHT22;8435;52.184;5.406;2023-09-30T04:28:36;15.70;99.90
16643;DHT22;8435;52.184;5.406;2023-09-30T04:31:02;15.80;99.90
16643;DHT22;8435;52.184;5.406;2023-09-30T04:33:33;15.80;99.90
16643;DHT22;8435;52.184;5.406;2023-09-30T04:36:01;15.80;99.90
16643;DHT22;8435;52.184;5.406;2023-09-30T04:38:28;15.80;99.90
16643;DHT22;8435;52.184;5.406;2023-09-30T04:40:56;15.80;99.90
16643;DHT22;8435;52.184;5.406;2023-09-30T04:43:26;15.80;99.90
16643;DHT22;8435;52.184;5.406;2023-09-30T04:45:55;15.80;99.90
16643;DHT22;8435;52.184;5.406;2023-09-30T04:48:22;15.80;99.90
16643;DHT22;8435;52.184;5.406;2023-09-30T04:50:50;15.70;99.90
16643;DHT22;8435;52.184;5.406;2023-09-30T04:53:18;15.70;99.90
16643;DHT22;8435;52.184;5.406;2023-09-30T04:55:44;15.70;99.90
16643;DHT22;8435;52.184;5.406;2023-09-30T04:58:11;15.70;99.90
16643;DHT22;8435;52.184;5.406;2023-09-30T05:00:38;15.70;99.90
16643;DHT22;8435;52.184;5.406;2023-09-30T05:03:05;15.70;99.90
16643;DHT22;8435;52.184;5.406;2023-09-30T05:05:32;15.70;99.90
16643;DHT22;8435;52.184;5.406;2023-09-30T05:08:01;15.70;99.90
16643;DHT22;8435;52.184;5.406;2023-09-30T05:10:28;15.70;99.90
16643;DHT22;8435;52.184;5.406;2023-09-30T05:12:55;15.70;99.90
16643;DHT22;8435;52.184;5.406;2023-09-30T05:15:22;15.70;99.90
16643;DHT22;8435;52.184;5.406;2023-09-30T05:17:52;15.70;99.90
16643;DHT22;8435;52.184;5.406;2023-09-30T05:20:19;15.60;99.90
16643;DHT22;8435;52.184;5.406;2023-09-30T05:22:46;15.70;99.90
16643;DHT22;8435;52.184;5.406;2023-09-30T05:25:15;15.60;99.90
16643;DHT22;8435;52.184;5.406;2023-09-30T05:27:43;15.60;99.90
16643;DHT22;8435;52.184;5.406;2023-09-30T05:30:10;15.60;99.90
16643;DHT22;8435;52.184;5.406;2023-09-30T05:32:37;15.60;99.90
16643;DHT22;8435;52.184;5.406;2023-09-30T05:35:05;15.60;99.90
16643;DHT22;8435;52.184;5.406;2023-09-30T05:37:38;15.60;99.90
16643;DHT22;8435;52.184;5.406;2023-09-30T05:40:06;15.60;99.90
16643;DHT22;8435;52.184;5.406;2023-09-30T05:42:43;15.60;99.90
16643;DHT22;8435;52.184;5.406;2023-09-30T05:45:10;15.60;99.90
16643;DHT22;8435;52.184;5.406;2023-09-30T05:47:40;15.50;99.90
16643;DHT22;8435;52.184;5.406;2023-09-30T05:50:07;15.50;99.90
16643;DHT22;8435;52.184;5.406;2023-09-30T05:52:35;15.50;99.90
16643;DHT22;8435;52.184;5.406;2023-09-30T05:55:03;15.50;99.90
16643;DHT22;8435;52.184;5.406;2023-09-30T05:57:30;15.50;99.90
16643;DHT22;8435;52.184;5.406;2023-09-30T05:59:58;15.40;99.90
16643;DHT22;8435;52.184;5.406;2023-09-30T06:02:25;15.40;99.90
16643;DHT22;8435;52.184;5.406;2023-09-30T06:04:51;15.40;99.90
16643;DHT22;8435;52.184;5.406;2023-09-30T06:07:19;15.40;99.90
16643;DHT22;8435;52.184;5.406;2023-09-30T06:09:46;15.40;99.90
16643;DHT22;8435;52.184;5.406;2023-09-30T06:12:13;15.40;99.90
16643;DHT22;8435;52.184;5.406;2023-09-30T06:14:40;15.40;99.90
16643;DHT22;8435;52.184;5.406;2023-09-30T06:17:08;15.40;99.90
16643;DHT22;8435;52.184;5.406;2023-09-30T06:19:35;15.40;99.90
16643;DHT22;8435;52.184;5.406;2023-09-30T06:22:03;15.40;99.90
16643;DHT22;8435;52.184;5.406;2023-09-30T06:24:30;15.40;99.90
16643;DHT22;8435;52.184;5.406;2023-09-30T06:26:57;15.40;99.90
16643;DHT22;8435;52.184;5.406;2023-09-30T06:29:23;15.40;99.90
16643;DHT22;8435;52.184;5.406;2023-09-30T06:31:50;15.40;99.90
16643;DHT22;8435;52.184;5.406;2023-09-30T06:34:18;15.40;99.90
16643;DHT22;8435;52.184;5.406;2023-09-30T06:36:45;15.50;99.90
16643;DHT22;8435;52.184;5.406;2023-09-30T06:39:12;15.50;99.90
16643;DHT22;8435;52.184;5.406;2023-09-30T06:41:39;15.50;99.90
16643;DHT22;8435;52.184;5.406;2023-09-30T06:44:06;15.50;99.90
16643;DHT22;8435;52.184;5.406;2023-09-30T06:46:32;15.60;99.90
16643;DHT22;8435;52.184;5.406;2023-09-30T06:48:59;15.60;99.90
16643;DHT22;8435;52.184;5.406;2023-09-30T06:51:27;15.60;99.90
16643;DHT22;8435;52.184;5.406;2023-09-30T06:53:54;15.70;99.90
16643;DHT22;8435;52.184;5.406;2023-09-30T06:56:21;15.70;99.90
16643;DHT22;8435;52.184;5.406;2023-09-30T06:58:48;15.70;99.90
16643;DHT22;8435;52.184;5.406;2023-09-30T07:01:15;15.80;99.90
16643;DHT22;8435;52.184;5.406;2023-09-30T07:03:43;15.80;99.90
16643;DHT22;8435;52.184;5.406;2023-09-30T07:06:11;15.80;99.90
16643;DHT22;8435;52.184;5.406;2023-09-30T07:08:39;15.90;99.90
16643;DHT22;8435;52.184;5.406;2023-09-30T07:11:06;15.90;99.90
16643;DHT22;8435;52.184;5.406;2023-09-30T07:13:33;16.00;99.90
16643;DHT22;8435;52.184;5.406;2023-09-30T07:16:01;16.10;99.90
16643;DHT22;8435;52.184;5.406;2023-09-30T07:18:27;16.10;99.90
16643;DHT22;8435;52.184;5.406;2023-09-30T07:20:54;16.20;99.90
16643;DHT22;8435;52.184;5.406;2023-09-30T07:23:21;16.30;99.90
16643;DHT22;8435;52.184;5.406;2023-09-30T07:25:49;16.30;99.90
16643;DHT22;8435;52.184;5.406;2023-09-30T07:28:16;16.40;99.90
16643;DHT22;8435;52.184;5.406;2023-09-30T07:30:46;16.50;99.90
16643;DHT22;8435;52.184;5.406;2023-09-30T07:33:13;16.70;99.90
16643;DHT22;8435;52.184;5.406;2023-09-30T07:35:40;16.90;99.90
16643;DHT22;8435;52.184;5.406;2023-09-30T07:38:07;17.20;99.90
16643;DHT22;8435;52.184;5.406;2023-09-30T07:40:33;17.40;99.90
16643;DHT22;8435;52.184;5.406;2023-09-30T07:43:02;17.80;99.90
16643;DHT22;8435;52.184;5.406;2023-09-30T07:45:29;18.20;99.90
16643;DHT22;8435;52.184;5.406;2023-09-30T07:47:59;18.50;99.90
16643;DHT22;8435;52.184;5.406;2023-09-30T07:50:30;18.80;99.90
16643;DHT22;8435;52.184;5.406;2023-09-30T07:52:56;19.30;99.90
16643;DHT22;8435;52.184;5.406;2023-09-30T07:55:24;19.60;99.90
16643;DHT22;8435;52.184;5.406;2023-09-30T07:57:50;19.90;99.90
16643;DHT22;8435;52.184;5.406;2023-09-30T08:00:19;20.20;99.90
16643;DHT22;8435;52.184;5.406;2023-09-30T08:02:49;20.50;99.90
16643;DHT22;8435;52.184;5.406;2023-09-30T08:05:16;20.70;99.90
16643;DHT22;8435;52.184;5.406;2023-09-30T08:07:43;20.80;99.90
16643;DHT22;8435;52.184;5.406;2023-09-30T08:10:11;20.90;99.90
16643;DHT22;8435;52.184;5.406;2023-09-30T08:12:45;21.00;99.90
16643;DHT22;8435;52.184;5.406;2023-09-30T08:15:14;21.20;99.90
16643;DHT22;8435;52.184;5.406;2023-09-30T08:17:42;21.30;99.90
16643;DHT22;8435;52.184;5.406;2023-09-30T08:20:10;21.40;99.90
16643;DHT22;8435;52.184;5.406;2023-09-30T08:22:37;21.50;99.90
16643;DHT22;8435;52.184;5.406;2023-09-30T08:25:06;21.70;99.90
16643;DHT22;8435;52.184;5.406;2023-09-30T08:27:33;21.90;99.90
16643;DHT22;8435;52.184;5.406;2023-09-30T08:30:00;22.00;99.80
16643;DHT22;8435;52.184;5.406;2023-09-30T08:32:32;22.20;99.40
16643;DHT22;8435;52.184;5.406;2023-09-30T08:35:03;22.40;98.90
16643;DHT22;8435;52.184;5.406;2023-09-30T08:37:30;22.60;98.70
16643;DHT22;8435;52.184;5.406;2023-09-30T08:39:58;22.70;98.80
16643;DHT22;8435;52.184;5.406;2023-09-30T08:42:27;22.90;98.60
16643;DHT22;8435;52.184;5.406;2023-09-30T08:44:57;23.10;98.20
16643;DHT22;8435;52.184;5.406;2023-09-30T08:47:26;23.20;98.20
16643;DHT22;8435;52.184;5.406;2023-09-30T08:50:00;23.40;97.60
16643;DHT22;8435;52.184;5.406;2023-09-30T08:52:33;23.60;97.40
16643;DHT22;8435;52.184;5.406;2023-09-30T08:55:00;23.70;97.00
16643;DHT22;8435;52.184;5.406;2023-09-30T08:57:28;23.80;96.90
16643;DHT22;8435;52.184;5.406;2023-09-30T08:59:55;24.00;96.60
16643;DHT22;8435;52.184;5.406;2023-09-30T09:02:22;24.10;96.60
16643;DHT22;8435;52.184;5.406;2023-09-30T09:04:52;24.20;96.40
16643;DHT22;8435;52.184;5.406;2023-09-30T09:07:19;24.30;96.50
16643;DHT22;8435;52.184;5.406;2023-09-30T09:10:05;24.50;96.10
16643;DHT22;8435;52.184;5.406;2023-09-30T09:12:34;24.50;95.20
16643;DHT22;8435;52.184;5.406;2023-09-30T09:15:02;24.60;95.50
16643;DHT22;8435;52.184;5.406;2023-09-30T09:17:42;24.60;95.30
16643;DHT22;8435;52.184;5.406;2023-09-30T09:20:10;24.60;94.70
16643;DHT22;8435;52.184;5.406;2023-09-30T09:22:39;24.50;94.90
16643;DHT22;8435;52.184;5.406;2023-09-30T09:25:08;24.40;94.70
16643;DHT22;8435;52.184;5.406;2023-09-30T09:27:35;24.30;94.50
16643;DHT22;8435;52.184;5.406;2023-09-30T09:30:15;24.20;94.70
16643;DHT22;8435;52.184;5.406;2023-09-30T09:32:53;24.10;94.10
16643;DHT22;8435;52.184;5.406;2023-09-30T09:35:20;23.90;94.00
16643;DHT22;8435;52.184;5.406;2023-09-30T09:37:55;23.90;94.30
16643;DHT22;8435;52.184;5.406;2023-09-30T09:40:26;23.70;94.30
16643;DHT22;8435;52.184;5.406;2023-09-30T09:42:53;23.70;94.30
16643;DHT22;8435;52.184;5.406;2023-09-30T09:45:21;23.60;94.60
16643;DHT22;8435;52.184;5.406;2023-09-30T09:47:50;23.50;94.60
16643;DHT22;8435;52.184;5.406;2023-09-30T09:50:18;23.40;94.70
16643;DHT22;8435;52.184;5.406;2023-09-30T09:52:48;23.50;94.80
16643;DHT22;8435;52.184;5.406;2023-09-30T09:55:16;23.40;94.70
16643;DHT22;8435;52.184;5.406;2023-09-30T09:57:45;23.40;94.70
16643;DHT22;8435;52.184;5.406;2023-09-30T10:00:14;23.40;94.60
16643;DHT22;8435;52.184;5.406;2023-09-30T10:02:41;23.30;94.50
16643;DHT22;8435;52.184;5.406;2023-09-30T10:05:12;23.30;94.50
16643;DHT22;8435;52.184;5.406;2023-09-30T10:07:44;23.30;94.40
16643;DHT22;8435;52.184;5.406;2023-09-30T10:10:14;23.30;94.20
16643;DHT22;8435;52.184;5.406;2023-09-30T10:12:43;23.30;94.10
16643;DHT22;8435;52.184;5.406;2023-09-30T10:15:38;23.20;94.30
16643;DHT22;8435;52.184;5.406;2023-09-30T10:18:09;23.20;94.10
16643;DHT22;8435;52.184;5.406;2023-09-30T10:20:38;23.10;94.40
16643;DHT22;8435;52.184;5.406;2023-09-30T10:23:19;23.10;94.40
16643;DHT22;8435;52.184;5.406;2023-09-30T10:25:47;23.10;94.20
16643;DHT22;8435;52.184;5.406;2023-09-30T10:28:36;23.10;94.50
16643;DHT22;8435;52.184;5.406;2023-09-30T10:31:11;23.00;94.20
16643;DHT22;8435;52.184;5.406;2023-09-30T10:36:39;23.00;93.80
16643;DHT22;8435;52.184;5.406;2023-09-30T10:39:11;23.00;94.20
16643;DHT22;8435;52.184;5.406;2023-09-30T10:41:51;22.90;94.00
16643;DHT22;8435;52.184;5.406;2023-09-30T10:44:35;22.90;93.90
16643;DHT22;8435;52.184;5.406;2023-09-30T10:47:36;22.90;93.90
16643;DHT22;8435;52.184;5.406;2023-09-30T10:53:08;22.90;93.60
16643;DHT22;8435;52.184;5.406;2023-09-30T10:55:36;22.90;94.20
16643;DHT22;8435;52.184;5.406;2023-09-30T10:58:03;22.90;94.20
16643;DHT22;8435;52.184;5.406;2023-09-30T11:00:33;22.90;94.30
16643;DHT22;8435;52.184;5.406;2023-09-30T11:03:00;22.90;93.90
16643;DHT22;8435;52.184;5.406;2023-09-30T11:05:27;22.90;93.90
16643;DHT22;8435;52.184;5.406;2023-09-30T11:07:55;22.90;93.70
16643;DHT22;8435;52.184;5.406;2023-09-30T11:10:24;22.90;93.80
16643;DHT22;8435;52.184;5.406;2023-09-30T11:12:56;23.00;93.80
16643;DHT22;8435;52.184;5.406;2023-09-30T11:15:23;23.00;93.50
16643;DHT22;8435;52.184;5.406;2023-09-30T11:17:52;23.00;93.60
16643;DHT22;8435;52.184;5.406;2023-09-30T11:20:19;23.00;93.50
16643;DHT22;8435;52.184;5.406;2023-09-30T11:22:47;23.00;93.90
16643;DHT22;8435;52.184;5.406;2023-09-30T11:25:17;22.90;93.20
16643;DHT22;8435;52.184;5.406;2023-09-30T11:27:44;22.90;93.10
16643;DHT22;8435;52.184;5.406;2023-09-30T11:30:13;22.90;93.40
16643;DHT22;8435;52.184;5.406;2023-09-30T11:32:40;22.90;93.20
16643;DHT22;8435;52.184;5.406;2023-09-30T11:35:10;22.90;93.00
16643;DHT22;8435;52.184;5.406;2023-09-30T11:37:47;22.90;92.70
16643;DHT22;8435;52.184;5.406;2023-09-30T11:40:15;23.00;92.80
16643;DHT22;8435;52.184;5.406;2023-09-30T11:42:41;23.00;92.90
16643;DHT22;8435;52.184;5.406;2023-09-30T11:45:19;23.00;92.80
16643;DHT22;8435;52.184;5.406;2023-09-30T11:47:47;22.90;92.40
16643;DHT22;8435;52.184;5.406;2023-09-30T11:50:16;22.90;92.90
16643;DHT22;8435;52.184;5.406;2023-09-30T11:52:44;22.90;92.70
16643;DHT22;8435;52.184;5.406;2023-09-30T11:55:12;22.90;92.50
16643;DHT22;8435;52.184;5.406;2023-09-30T11:57:39;22.90;92.70
16643;DHT22;8435;52.184;5.406;2023-09-30T12:00:07;22.90;92.70
16643;DHT22;8435;52.184;5.406;2023-09-30T12:02:39;22.90;92.80
16643;DHT22;8435;52.184;5.406;2023-09-30T12:05:09;22.90;92.80
16643;DHT22;8435;52.184;5.406;2023-09-30T12:07:40;22.90;92.80
16643;DHT22;8435;52.184;5.406;2023-09-30T12:10:08;22.80;92.80
16643;DHT22;8435;52.184;5.406;2023-09-30T12:12:35;22.80;92.80
16643;DHT22;8435;52.184;5.406;2023-09-30T12:15:05;22.80;92.80
16643;DHT22;8435;52.184;5.406;2023-09-30T12:17:32;22.80;92.50
16643;DHT22;8435;52.184;5.406;2023-09-30T12:19:59;22.80;92.80
16643;DHT22;8435;52.184;5.406;2023-09-30T12:22:26;22.80;92.70
16643;DHT22;8435;52.184;5.406;2023-09-30T12:24:55;22.80;92.40
16643;DHT22;8435;52.184;5.406;2023-09-30T12:27:21;22.80;92.00
16643;DHT22;8435;52.184;5.406;2023-09-30T12:29:48;22.70;91.90
16643;DHT22;8435;52.184;5.406;2023-09-30T12:32:15;22.80;91.80
16643;DHT22;8435;52.184;5.406;2023-09-30T12:34:42;22.70;91.70
16643;DHT22;8435;52.184;5.406;2023-09-30T12:37:09;22.70;91.70
16643;DHT22;8435;52.184;5.406;2023-09-30T12:39:35;22.60;91.90
16643;DHT22;8435;52.184;5.406;2023-09-30T12:42:04;22.60;92.00
16643;DHT22;8435;52.184;5.406;2023-09-30T12:44:34;22.60;92.40
16643;DHT22;8435;52.184;5.406;2023-09-30T12:47:01;22.50;92.50
16643;DHT22;8435;52.184;5.406;2023-09-30T12:49:28;22.50;92.50
16643;DHT22;8435;52.184;5.406;2023-09-30T12:51:55;22.50;92.60
16643;DHT22;8435;52.184;5.406;2023-09-30T12:54:22;22.50;92.60
16643;DHT22;8435;52.184;5.406;2023-09-30T12:56:54;22.50;92.20
16643;DHT22;8435;52.184;5.406;2023-09-30T12:59:25;22.40;92.10
16643;DHT22;8435;52.184;5.406;2023-09-30T13:01:52;22.40;91.90
16643;DHT22;8435;52.184;5.406;2023-09-30T13:04:19;22.40;92.50
16643;DHT22;8435;52.184;5.406;2023-09-30T13:06:46;22.30;92.50
16643;DHT22;8435;52.184;5.406;2023-09-30T13:09:14;22.30;92.30
16643;DHT22;8435;52.184;5.406;2023-09-30T13:11:41;22.30;92.20
16643;DHT22;8435;52.184;5.406;2023-09-30T13:14:09;22.20;92.30
16643;DHT22;8435;52.184;5.406;2023-09-30T13:16:38;22.20;92.10
16643;DHT22;8435;52.184;5.406;2023-09-30T13:19:05;22.20;92.20
16643;DHT22;8435;52.184;5.406;2023-09-30T13:21:32;22.20;92.30
16643;DHT22;8435;52.184;5.406;2023-09-30T13:23:59;22.10;92.40
16643;DHT22;8435;52.184;5.406;2023-09-30T13:26:25;22.20;92.60
16643;DHT22;8435;52.184;5.406;2023-09-30T13:28:52;22.20;92.80
16643;DHT22;8435;52.184;5.406;2023-09-30T13:31:19;22.20;92.80
16643;DHT22;8435;52.184;5.406;2023-09-30T13:33:48;22.30;92.70
16643;DHT22;8435;52.184;5.406;2023-09-30T13:36:15;22.30;92.70
16643;DHT22;8435;52.184;5.406;2023-09-30T13:38:42;22.40;92.60
16643;DHT22;8435;52.184;5.406;2023-09-30T13:41:08;22.50;92.60
16643;DHT22;8435;52.184;5.406;2023-09-30T13:43:35;22.50;92.40
16643;DHT22;8435;52.184;5.406;2023-09-30T13:46:03;22.60;92.30
16643;DHT22;8435;52.184;5.406;2023-09-30T13:48:32;22.60;92.40
16643;DHT22;8435;52.184;5.406;2023-09-30T13:51:05;22.70;92.40
16643;DHT22;8435;52.184;5.406;2023-09-30T13:53:32;22.70;92.10
16643;DHT22;8435;52.184;5.406;2023-09-30T13:55:59;22.60;92.30
16643;DHT22;8435;52.184;5.406;2023-09-30T13:58:26;22.60;92.20
16643;DHT22;8435;52.184;5.406;2023-09-30T14:00:53;22.60;92.40
16643;DHT22;8435;52.184;5.406;2023-09-30T14:03:19;22.70;92.30
16643;DHT22;8435;52.184;5.406;2023-09-30T14:05:46;22.60;92.20
16643;DHT22;8435;52.184;5.406;2023-09-30T14:08:14;22.60;92.00
16643;DHT22;8435;52.184;5.406;2023-09-30T14:10:41;22.60;92.10
16643;DHT22;8435;52.184;5.406;2023-09-30T14:13:09;22.70;92.10
16643;DHT22;8435;52.184;5.406;2023-09-30T14:15:36;22.70;91.70
16643;DHT22;8435;52.184;5.406;2023-09-30T14:18:04;22.70;91.60
16643;DHT22;8435;52.184;5.406;2023-09-30T14:20:31;23.00;91.40
16643;DHT22;8435;52.184;5.406;2023-09-30T14:22:59;22.60;91.20
16643;DHT22;8435;52.184;5.406;2023-09-30T14:25:28;22.60;91.50
16643;DHT22;8435;52.184;5.406;2023-09-30T14:27:55;22.60;91.20
16643;DHT22;8435;52.184;5.406;2023-09-30T14:30:28;22.60;91.20
16643;DHT22;8435;52.184;5.406;2023-09-30T14:32:55;22.60;91.10
16643;DHT22;8435;52.184;5.406;2023-09-30T14:35:21;22.60;91.20
16643;DHT22;8435;52.184;5.406;2023-09-30T14:37:48;22.70;91.20
16643;DHT22;8435;52.184;5.406;2023-09-30T14:40:15;22.70;91.10
16643;DHT22;8435;52.184;5.406;2023-09-30T14:42:43;22.70;91.20
16643;DHT22;8435;52.184;5.406;2023-09-30T14:45:10;22.70;90.80
16643;DHT22;8435;52.184;5.406;2023-09-30T14:47:37;22.60;90.80
16643;DHT22;8435;52.184;5.406;2023-09-30T14:50:06;22.70;90.80
16643;DHT22;8435;52.184;5.406;2023-09-30T14:52:33;22.70;90.80
16643;DHT22;8435;52.184;5.406;2023-09-30T14:55:00;22.60;91.00
16643;DHT22;8435;52.184;5.406;2023-09-30T14:57:27;22.70;91.10
16643;DHT22;8435;52.184;5.406;2023-09-30T14:59:57;22.60;91.00
16643;DHT22;8435;52.184;5.406;2023-09-30T15:02:24;22.60;90.80
16643;DHT22;8435;52.184;5.406;2023-09-30T15:04:51;22.60;90.90
16643;DHT22;8435;52.184;5.406;2023-09-30T15:07:18;22.60;91.00
16643;DHT22;8435;52.184;5.406;2023-09-30T15:09:45;22.60;90.90
16643;DHT22;8435;52.184;5.406;2023-09-30T15:12:12;22.60;91.00
16643;DHT22;8435;52.184;5.406;2023-09-30T15:14:39;22.60;91.10
16643;DHT22;8435;52.184;5.406;2023-09-30T15:17:08;22.60;91.10
16643;DHT22;8435;52.184;5.406;2023-09-30T15:19:35;22.60;91.00
16643;DHT22;8435;52.184;5.406;2023-09-30T15:22:02;22.60;91.30
16643;DHT22;8435;52.184;5.406;2023-09-30T15:24:28;22.60;91.20
16643;DHT22;8435;52.184;5.406;2023-09-30T15:26:55;22.60;91.20
16643;DHT22;8435;52.184;5.406;2023-09-30T15:29:22;22.60;91.20
16643;DHT22;8435;52.184;5.406;2023-09-30T15:31:49;22.60;91.10
16643;DHT22;8435;52.184;5.406;2023-09-30T15:34:17;22.60;90.90
16643;DHT22;8435;52.184;5.406;2023-09-30T15:36:44;22.60;90.70
16643;DHT22;8435;52.184;5.406;2023-09-30T15:39:11;22.60;90.70
16643;DHT22;8435;52.184;5.406;2023-09-30T15:41:38;22.70;90.60
16643;DHT22;8435;52.184;5.406;2023-09-30T15:44:05;22.70;90.40
16643;DHT22;8435;52.184;5.406;2023-09-30T15:46:32;22.70;90.40
16643;DHT22;8435;52.184;5.406;2023-09-30T15:48:59;22.60;90.30
16643;DHT22;8435;52.184;5.406;2023-09-30T15:51:27;22.60;90.30
16643;DHT22;8435;52.184;5.406;2023-09-30T15:53:54;22.60;90.30
16643;DHT22;8435;52.184;5.406;2023-09-30T15:56:21;22.60;90.40